sensor_id;sensor_type;location;lat;lon;timestamp;P1;durP1;ratioP1;P2;durP2;ratioP2
21202;SDS011;10759;51.982;9.232;2022-07-10T00:02:29;5.00;;;1.50;;
21202;SDS011;10759;51.982;9.232;2022-07-10T00:05:13;6.68;;;1.83;;
21202;SDS011;10759;51.982;9.232;2022-07-10T00:07:49;2.72;;;1.17;;
21202;SDS011;10759;51.982;9.232;2022-07-10T00:10:26;6.88;;;1.40;;
21202;SDS011;10759;51.982;9.232;2022-07-10T00:13:02;3.80;;;1.17;;
21202;SDS011;10759;51.982;9.232;2022-07-10T00:15:40;4.53;;;1.00;;
21202;SDS011;10759;51.982;9.232;2022-07-10T00:18:14;5.32;;;1.27;;
21202;SDS011;10759;51.982;9.232;2022-07-10T00:20:44;4.15;;;1.05;;
21202;SDS011;10759;51.982;9.232;2022-07-10T00:23:31;2.95;;;1.40;;
21202;SDS011;10759;51.982;9.232;2022-07-10T00:26:06;4.10;;;1.10;;
21202;SDS011;10759;51.982;9.232;2022-07-10T00:28:36;3.22;;;1.42;;
21202;SDS011;10759;51.982;9.232;2022-07-10T00:31:08;3.53;;;1.52;;
21202;SDS011;10759;51.982;9.232;2022-07-10T00:33:37;7.28;;;1.35;;
21202;SDS011;10759;51.982;9.232;2022-07-10T00:36:07;4.50;;;1.10;;
21202;SDS011;10759;51.982;9.232;2022-07-10T00:38:38;4.00;;;1.55;;
21202;SDS011;10759;51.982;9.232;2022-07-10T00:41:07;3.63;;;0.77;;
21202;SDS011;10759;51.982;9.232;2022-07-10T00:46:27;4.80;;;1.65;;
21202;SDS011;10759;51.982;9.232;2022-07-10T00:48:58;3.80;;;1.05;;
21202;SDS011;10759;51.982;9.232;2022-07-10T00:51:39;1.88;;;0.85;;
21202;SDS011;10759;51.982;9.232;2022-07-10T00:54:11;2.78;;;1.02;;
21202;SDS011;10759;51.982;9.232;2022-07-10T00:56:42;2.40;;;1.05;;
21202;SDS011;10759;51.982;9.232;2022-07-10T00:59:11;5.45;;;1.40;;
21202;SDS011;10759;51.982;9.232;2022-07-10T01:01:57;5.38;;;1.02;;
21202;SDS011;10759;51.982;9.232;2022-07-10T01:07:06;3.00;;;1.20;;
21202;SDS011;10759;51.982;9.232;2022-07-10T01:09:39;3.53;;;0.90;;
21202;SDS011;10759;51.982;9.232;2022-07-10T01:12:12;3.22;;;1.15;;
21202;SDS011;10759;51.982;9.232;2022-07-10T01:14:52;3.15;;;1.67;;
21202;SDS011;10759;51.982;9.232;2022-07-10T01:17:29;3.85;;;1.23;;
21202;SDS011;10759;51.982;9.232;2022-07-10T01:20:06;4.00;;;1.50;;
21202;SDS011;10759;51.982;9.232;2022-07-10T01:22:38;5.07;;;1.35;;
21202;SDS011;10759;51.982;9.232;2022-07-10T01:25:21;4.82;;;1.00;;
21202;SDS011;10759;51.982;9.232;2022-07-10T01:27:52;2.13;;;0.80;;
21202;SDS011;10759;51.982;9.232;2022-07-10T01:30:21;6.55;;;1.35;;
21202;SDS011;10759;51.982;9.232;2022-07-10T01:32:58;2.92;;;1.20;;
21202;SDS011;10759;51.982;9.232;2022-07-10T01:35:35;4.85;;;1.23;;
21202;SDS011;10759;51.982;9.232;2022-07-10T01:38:05;6.80;;;1.42;;
21202;SDS011;10759;51.982;9.232;2022-07-10T01:40:36;6.47;;;1.52;;
21202;SDS011;10759;51.982;9.232;2022-07-10T01:43:04;4.13;;;1.30;;
21202;SDS011;10759;51.982;9.232;2022-07-10T01:45:37;3.67;;;1.45;;
21202;SDS011;10759;51.982;9.232;2022-07-10T01:48:08;2.90;;;1.55;;
21202;SDS011;10759;51.982;9.232;2022-07-10T01:50:43;5.03;;;1.20;;
21202;SDS011;10759;51.982;9.232;2022-07-10T01:53:19;4.13;;;1.45;;
21202;SDS011;10759;51.982;9.232;2022-07-10T01:56:07;4.38;;;1.58;;
21202;SDS011;10759;51.982;9.232;2022-07-10T01:58:37;2.75;;;0.98;;
21202;SDS011;10759;51.982;9.232;2022-07-10T02:01:18;4.50;;;1.40;;
21202;SDS011;10759;51.982;9.232;2022-07-10T02:03:48;5.68;;;1.50;;
21202;SDS011;10759;51.982;9.232;2022-07-10T02:06:33;4.47;;;1.58;;
21202;SDS011;10759;51.982;9.232;2022-07-10T02:09:04;5.63;;;1.40;;
21202;SDS011;10759;51.982;9.232;2022-07-10T02:11:32;4.90;;;1.65;;
21202;SDS011;10759;51.982;9.232;2022-07-10T02:14:00;6.30;;;1.73;;
21202;SDS011;10759;51.982;9.232;2022-07-10T02:16:28;5.93;;;2.10;;
21202;SDS011;10759;51.982;9.232;2022-07-10T02:18:56;5.05;;;1.67;;
21202;SDS011;10759;51.982;9.232;2022-07-10T02:21:24;4.07;;;1.23;;
21202;SDS011;10759;51.982;9.232;2022-07-10T02:23:52;5.25;;;1.85;;
21202;SDS011;10759;51.982;9.232;2022-07-10T02:26:21;5.80;;;1.77;;
21202;SDS011;10759;51.982;9.232;2022-07-10T02:28:49;5.20;;;1.80;;
21202;SDS011;10759;51.982;9.232;2022-07-10T02:31:18;4.00;;;1.48;;
21202;SDS011;10759;51.982;9.232;2022-07-10T02:33:46;4.75;;;1.70;;
21202;SDS011;10759;51.982;9.232;2022-07-10T02:36:14;3.55;;;1.25;;
21202;SDS011;10759;51.982;9.232;2022-07-10T02:38:42;4.03;;;1.45;;
21202;SDS011;10759;51.982;9.232;2022-07-10T02:41:12;3.85;;;1.45;;
21202;SDS011;10759;51.982;9.232;2022-07-10T02:43:41;5.30;;;1.42;;
21202;SDS011;10759;51.982;9.232;2022-07-10T02:46:09;7.90;;;1.55;;
21202;SDS011;10759;51.982;9.232;2022-07-10T02:48:37;5.00;;;1.83;;
21202;SDS011;10759;51.982;9.232;2022-07-10T02:51:05;6.85;;;3.85;;
21202;SDS011;10759;51.982;9.232;2022-07-10T02:53:33;4.15;;;1.50;;
21202;SDS011;10759;51.982;9.232;2022-07-10T02:56:01;3.40;;;1.30;;
21202;SDS011;10759;51.982;9.232;2022-07-10T02:58:32;4.97;;;1.75;;
21202;SDS011;10759;51.982;9.232;2022-07-10T03:01:02;4.30;;;1.45;;
21202;SDS011;10759;51.982;9.232;2022-07-10T03:03:30;5.47;;;1.40;;
21202;SDS011;10759;51.982;9.232;2022-07-10T03:05:58;7.57;;;1.73;;
21202;SDS011;10759;51.982;9.232;2022-07-10T03:08:26;4.53;;;1.67;;
21202;SDS011;10759;51.982;9.232;2022-07-10T03:10:54;4.45;;;1.58;;
21202;SDS011;10759;51.982;9.232;2022-07-10T03:13:22;4.68;;;1.38;;
21202;SDS011;10759;51.982;9.232;2022-07-10T03:15:53;5.53;;;1.63;;
21202;SDS011;10759;51.982;9.232;2022-07-10T03:18:22;7.28;;;1.70;;
21202;SDS011;10759;51.982;9.232;2022-07-10T03:20:51;4.28;;;1.90;;
21202;SDS011;10759;51.982;9.232;2022-07-10T03:23:18;4.82;;;1.48;;
21202;SDS011;10759;51.982;9.232;2022-07-10T03:25:46;5.03;;;1.27;;
21202;SDS011;10759;51.982;9.232;2022-07-10T03:28:20;7.57;;;1.67;;
21202;SDS011;10759;51.982;9.232;2022-07-10T03:30:48;9.98;;;1.70;;
21202;SDS011;10759;51.982;9.232;2022-07-10T03:33:16;2.17;;;1.15;;
21202;SDS011;10759;51.982;9.232;2022-07-10T03:35:45;5.55;;;1.13;;
21202;SDS011;10759;51.982;9.232;2022-07-10T03:38:13;5.40;;;1.63;;
21202;SDS011;10759;51.982;9.232;2022-07-10T03:40:41;5.53;;;1.30;;
21202;SDS011;10759;51.982;9.232;2022-07-10T03:43:12;9.88;;;1.67;;
21202;SDS011;10759;51.982;9.232;2022-07-10T03:48:10;4.10;;;1.35;;
21202;SDS011;10759;51.982;9.232;2022-07-10T03:50:37;7.75;;;1.63;;
21202;SDS011;10759;51.982;9.232;2022-07-10T03:53:07;7.47;;;1.33;;
21202;SDS011;10759;51.982;9.232;2022-07-10T03:55:38;5.20;;;1.45;;
21202;SDS011;10759;51.982;9.232;2022-07-10T03:58:08;3.75;;;1.92;;
21202;SDS011;10759;51.982;9.232;2022-07-10T04:00:40;9.02;;;2.35;;
21202;SDS011;10759;51.982;9.232;2022-07-10T04:03:12;4.82;;;1.20;;
21202;SDS011;10759;51.982;9.232;2022-07-10T04:05:51;3.40;;;1.23;;
21202;SDS011;10759;51.982;9.232;2022-07-10T04:08:24;6.45;;;1.58;;
21202;SDS011;10759;51.982;9.232;2022-07-10T04:11:07;5.03;;;1.70;;
21202;SDS011;10759;51.982;9.232;2022-07-10T04:13:47;5.57;;;1.60;;
21202;SDS011;10759;51.982;9.232;2022-07-10T04:16:16;5.35;;;1.50;;
21202;SDS011;10759;51.982;9.232;2022-07-10T04:18:48;4.70;;;1.25;;
21202;SDS011;10759;51.982;9.232;2022-07-10T04:21:26;5.38;;;1.50;;
21202;SDS011;10759;51.982;9.232;2022-07-10T04:23:59;5.75;;;1.90;;
21202;SDS011;10759;51.982;9.232;2022-07-10T04:26:32;5.43;;;1.20;;
21202;SDS011;10759;51.982;9.232;2022-07-10T04:29:03;7.78;;;2.25;;
21202;SDS011;10759;51.982;9.232;2022-07-10T04:31:33;3.70;;;1.30;;
21202;SDS011;10759;51.982;9.232;2022-07-10T04:34:06;6.57;;;2.25;;
21202;SDS011;10759;51.982;9.232;2022-07-10T04:36:35;6.28;;;1.85;;
21202;SDS011;10759;51.982;9.232;2022-07-10T04:39:07;3.35;;;1.58;;
21202;SDS011;10759;51.982;9.232;2022-07-10T04:41:39;4.13;;;1.50;;
21202;SDS011;10759;51.982;9.232;2022-07-10T04:44:11;5.78;;;1.65;;
21202;SDS011;10759;51.982;9.232;2022-07-10T04:46:45;5.15;;;1.98;;
21202;SDS011;10759;51.982;9.232;2022-07-10T04:49:14;3.50;;;1.33;;
21202;SDS011;10759;51.982;9.232;2022-07-10T04:51:53;10.50;;;1.50;;
21202;SDS011;10759;51.982;9.232;2022-07-10T04:54:24;5.20;;;1.48;;
21202;SDS011;10759;51.982;9.232;2022-07-10T04:56:52;8.95;;;1.60;;
21202;SDS011;10759;51.982;9.232;2022-07-10T04:59:24;5.07;;;1.55;;
21202;SDS011;10759;51.982;9.232;2022-07-10T05:01:52;4.82;;;1.50;;
21202;SDS011;10759;51.982;9.232;2022-07-10T05:04:23;5.30;;;1.30;;
21202;SDS011;10759;51.982;9.232;2022-07-10T05:06:53;4.78;;;1.60;;
21202;SDS011;10759;51.982;9.232;2022-07-10T05:09:21;6.43;;;2.10;;
21202;SDS011;10759;51.982;9.232;2022-07-10T05:11:59;4.35;;;1.60;;
21202;SDS011;10759;51.982;9.232;2022-07-10T05:14:28;5.72;;;1.83;;
21202;SDS011;10759;51.982;9.232;2022-07-10T05:16:56;7.50;;;2.28;;
21202;SDS011;10759;51.982;9.232;2022-07-10T05:19:39;5.55;;;1.90;;
21202;SDS011;10759;51.982;9.232;2022-07-10T05:22:17;11.52;;;2.03;;
21202;SDS011;10759;51.982;9.232;2022-07-10T05:24:45;4.57;;;1.58;;
21202;SDS011;10759;51.982;9.232;2022-07-10T05:27:19;3.15;;;1.38;;
21202;SDS011;10759;51.982;9.232;2022-07-10T05:29:50;4.53;;;1.52;;
21202;SDS011;10759;51.982;9.232;2022-07-10T05:32:21;5.07;;;1.50;;
21202;SDS011;10759;51.982;9.232;2022-07-10T05:34:51;3.78;;;1.52;;
21202;SDS011;10759;51.982;9.232;2022-07-10T05:37:22;3.55;;;1.40;;
21202;SDS011;10759;51.982;9.232;2022-07-10T05:39:55;4.55;;;1.40;;
21202;SDS011;10759;51.982;9.232;2022-07-10T05:42:32;5.07;;;1.45;;
21202;SDS011;10759;51.982;9.232;2022-07-10T05:45:10;5.37;;;1.97;;
21202;SDS011;10759;51.982;9.232;2022-07-10T05:47:45;5.45;;;2.38;;
21202;SDS011;10759;51.982;9.232;2022-07-10T05:50:16;6.68;;;1.55;;
21202;SDS011;10759;51.982;9.232;2022-07-10T05:52:46;4.65;;;1.55;;
21202;SDS011;10759;51.982;9.232;2022-07-10T05:55:17;4.18;;;1.40;;
21202;SDS011;10759;51.982;9.232;2022-07-10T05:57:47;3.75;;;1.25;;
21202;SDS011;10759;51.982;9.232;2022-07-10T06:00:18;4.32;;;1.50;;
21202;SDS011;10759;51.982;9.232;2022-07-10T06:02:54;3.20;;;1.63;;
21202;SDS011;10759;51.982;9.232;2022-07-10T06:05:27;3.33;;;1.40;;
21202;SDS011;10759;51.982;9.232;2022-07-10T06:07:56;5.35;;;1.48;;
21202;SDS011;10759;51.982;9.232;2022-07-10T06:10:34;5.57;;;1.30;;
21202;SDS011;10759;51.982;9.232;2022-07-10T06:13:04;4.25;;;1.60;;
21202;SDS011;10759;51.982;9.232;2022-07-10T06:15:42;6.57;;;1.50;;
21202;SDS011;10759;51.982;9.232;2022-07-10T06:18:15;7.88;;;1.50;;
21202;SDS011;10759;51.982;9.232;2022-07-10T06:20:46;5.53;;;1.25;;
21202;SDS011;10759;51.982;9.232;2022-07-10T06:23:16;3.42;;;1.40;;
21202;SDS011;10759;51.982;9.232;2022-07-10T06:25:52;7.30;;;2.25;;
21202;SDS011;10759;51.982;9.232;2022-07-10T06:28:38;3.85;;;1.27;;
21202;SDS011;10759;51.982;9.232;2022-07-10T06:31:10;4.22;;;1.63;;
21202;SDS011;10759;51.982;9.232;2022-07-10T06:33:40;3.03;;;1.30;;
21202;SDS011;10759;51.982;9.232;2022-07-10T06:36:10;5.65;;;2.10;;
21202;SDS011;10759;51.982;9.232;2022-07-10T06:38:41;5.18;;;1.50;;
21202;SDS011;10759;51.982;9.232;2022-07-10T06:41:10;4.00;;;1.67;;
21202;SDS011;10759;51.982;9.232;2022-07-10T06:43:39;5.72;;;1.35;;
21202;SDS011;10759;51.982;9.232;2022-07-10T06:46:10;3.10;;;1.20;;
21202;SDS011;10759;51.982;9.232;2022-07-10T06:48:47;4.55;;;1.83;;
21202;SDS011;10759;51.982;9.232;2022-07-10T06:51:20;4.38;;;1.63;;
21202;SDS011;10759;51.982;9.232;2022-07-10T06:53:51;4.68;;;1.70;;
21202;SDS011;10759;51.982;9.232;2022-07-10T06:56:26;3.78;;;1.60;;
21202;SDS011;10759;51.982;9.232;2022-07-10T06:59:00;5.70;;;1.70;;
21202;SDS011;10759;51.982;9.232;2022-07-10T07:01:35;5.13;;;1.60;;
21202;SDS011;10759;51.982;9.232;2022-07-10T07:04:09;7.30;;;1.92;;
21202;SDS011;10759;51.982;9.232;2022-07-10T07:06:49;4.15;;;1.50;;
21202;SDS011;10759;51.982;9.232;2022-07-10T07:09:23;3.08;;;1.33;;
21202;SDS011;10759;51.982;9.232;2022-07-10T07:11:56;6.05;;;1.70;;
21202;SDS011;10759;51.982;9.232;2022-07-10T07:14:30;5.15;;;1.50;;
21202;SDS011;10759;51.982;9.232;2022-07-10T07:17:00;3.83;;;1.48;;
21202;SDS011;10759;51.982;9.232;2022-07-10T07:19:37;10.90;;;1.83;;
21202;SDS011;10759;51.982;9.232;2022-07-10T07:22:27;4.90;;;1.50;;
21202;SDS011;10759;51.982;9.232;2022-07-10T07:25:17;3.95;;;1.50;;
21202;SDS011;10759;51.982;9.232;2022-07-10T07:27:51;3.35;;;1.30;;
21202;SDS011;10759;51.982;9.232;2022-07-10T07:30:38;4.50;;;1.52;;
21202;SDS011;10759;51.982;9.232;2022-07-10T07:33:16;5.80;;;2.40;;
21202;SDS011;10759;51.982;9.232;2022-07-10T07:35:45;6.32;;;1.80;;
21202;SDS011;10759;51.982;9.232;2022-07-10T07:38:23;4.47;;;1.17;;
21202;SDS011;10759;51.982;9.232;2022-07-10T07:41:19;4.00;;;1.40;;
21202;SDS011;10759;51.982;9.232;2022-07-10T07:43:52;3.33;;;1.40;;
21202;SDS011;10759;51.982;9.232;2022-07-10T07:46:34;6.40;;;1.65;;
21202;SDS011;10759;51.982;9.232;2022-07-10T07:49:08;6.82;;;1.88;;
21202;SDS011;10759;51.982;9.232;2022-07-10T07:51:40;7.65;;;1.65;;
21202;SDS011;10759;51.982;9.232;2022-07-10T07:54:11;5.68;;;1.70;;
21202;SDS011;10759;51.982;9.232;2022-07-10T07:56:47;6.28;;;1.40;;
21202;SDS011;10759;51.982;9.232;2022-07-10T07:59:22;3.63;;;1.65;;
21202;SDS011;10759;51.982;9.232;2022-07-10T08:01:55;3.97;;;1.48;;
21202;SDS011;10759;51.982;9.232;2022-07-10T08:04:27;7.45;;;1.42;;
21202;SDS011;10759;51.982;9.232;2022-07-10T08:07:02;3.75;;;1.05;;
21202;SDS011;10759;51.982;9.232;2022-07-10T08:09:33;2.60;;;1.33;;
21202;SDS011;10759;51.982;9.232;2022-07-10T08:12:01;4.25;;;1.30;;
21202;SDS011;10759;51.982;9.232;2022-07-10T08:14:35;4.32;;;1.30;;
21202;SDS011;10759;51.982;9.232;2022-07-10T08:17:15;5.63;;;1.67;;
21202;SDS011;10759;51.982;9.232;2022-07-10T08:19:57;4.57;;;1.30;;
21202;SDS011;10759;51.982;9.232;2022-07-10T08:22:25;4.07;;;1.20;;
21202;SDS011;10759;51.982;9.232;2022-07-10T08:24:57;8.80;;;1.48;;
21202;SDS011;10759;51.982;9.232;2022-07-10T08:27:27;5.15;;;1.83;;
21202;SDS011;10759;51.982;9.232;2022-07-10T08:29:59;4.03;;;1.10;;
21202;SDS011;10759;51.982;9.232;2022-07-10T08:32:32;5.80;;;1.60;;
21202;SDS011;10759;51.982;9.232;2022-07-10T08:35:07;5.93;;;1.25;;
21202;SDS011;10759;51.982;9.232;2022-07-10T08:37:42;7.10;;;1.55;;
21202;SDS011;10759;51.982;9.232;2022-07-10T08:40:14;6.55;;;1.30;;
21202;SDS011;10759;51.982;9.232;2022-07-10T08:42:44;9.10;;;1.70;;
21202;SDS011;10759;51.982;9.232;2022-07-10T08:45:12;2.65;;;1.35;;
21202;SDS011;10759;51.982;9.232;2022-07-10T08:47:42;4.55;;;1.50;;
21202;SDS011;10759;51.982;9.232;2022-07-10T08:50:16;5.53;;;1.38;;
21202;SDS011;10759;51.982;9.232;2022-07-10T08:52:48;4.15;;;1.50;;
21202;SDS011;10759;51.982;9.232;2022-07-10T08:55:25;6.65;;;2.58;;
21202;SDS011;10759;51.982;9.232;2022-07-10T08:58:10;4.72;;;1.30;;
21202;SDS011;10759;51.982;9.232;2022-07-10T09:00:45;2.78;;;1.10;;
21202;SDS011;10759;51.982;9.232;2022-07-10T09:03:15;6.10;;;1.38;;
21202;SDS011;10759;51.982;9.232;2022-07-10T09:05:49;6.50;;;2.15;;
21202;SDS011;10759;51.982;9.232;2022-07-10T09:08:28;5.00;;;1.30;;
21202;SDS011;10759;51.982;9.232;2022-07-10T09:11:20;5.13;;;1.30;;
21202;SDS011;10759;51.982;9.232;2022-07-10T09:13:56;4.95;;;1.17;;
21202;SDS011;10759;51.982;9.232;2022-07-10T09:16:45;5.25;;;1.38;;
21202;SDS011;10759;51.982;9.232;2022-07-10T09:19:23;5.30;;;1.30;;
21202;SDS011;10759;51.982;9.232;2022-07-10T09:22:00;4.13;;;1.30;;
21202;SDS011;10759;51.982;9.232;2022-07-10T09:24:41;3.10;;;1.50;;
21202;SDS011;10759;51.982;9.232;2022-07-10T09:27:17;5.13;;;1.30;;
21202;SDS011;10759;51.982;9.232;2022-07-10T09:29:50;4.75;;;1.45;;
21202;SDS011;10759;51.982;9.232;2022-07-10T09:32:24;4.82;;;1.25;;
21202;SDS011;10759;51.982;9.232;2022-07-10T09:34:57;7.32;;;1.50;;
21202;SDS011;10759;51.982;9.232;2022-07-10T09:37:48;3.10;;;1.20;;
21202;SDS011;10759;51.982;9.232;2022-07-10T09:40:18;5.53;;;1.63;;
21202;SDS011;10759;51.982;9.232;2022-07-10T09:42:55;4.60;;;1.55;;
21202;SDS011;10759;51.982;9.232;2022-07-10T09:45:42;7.70;;;1.30;;
21202;SDS011;10759;51.982;9.232;2022-07-10T09:48:25;8.00;;;1.83;;
21202;SDS011;10759;51.982;9.232;2022-07-10T09:51:10;3.85;;;1.30;;
21202;SDS011;10759;51.982;9.232;2022-07-10T09:53:43;4.05;;;1.20;;
21202;SDS011;10759;51.982;9.232;2022-07-10T09:56:23;3.58;;;1.42;;
21202;SDS011;10759;51.982;9.232;2022-07-10T09:58:59;5.40;;;1.58;;
21202;SDS011;10759;51.982;9.232;2022-07-10T10:01:31;5.68;;;1.27;;
21202;SDS011;10759;51.982;9.232;2022-07-10T10:04:07;3.80;;;1.45;;
21202;SDS011;10759;51.982;9.232;2022-07-10T10:06:55;7.85;;;1.70;;
21202;SDS011;10759;51.982;9.232;2022-07-10T10:09:29;2.40;;;1.08;;
21202;SDS011;10759;51.982;9.232;2022-07-10T10:12:10;7.00;;;1.63;;
21202;SDS011;10759;51.982;9.232;2022-07-10T10:14:48;4.03;;;1.42;;
21202;SDS011;10759;51.982;9.232;2022-07-10T10:19:47;5.22;;;1.50;;
21202;SDS011;10759;51.982;9.232;2022-07-10T10:22:39;3.67;;;1.60;;
21202;SDS011;10759;51.982;9.232;2022-07-10T10:25:14;4.88;;;1.70;;
21202;SDS011;10759;51.982;9.232;2022-07-10T10:27:52;3.88;;;1.30;;
21202;SDS011;10759;51.982;9.232;2022-07-10T10:30:20;2.45;;;0.98;;
21202;SDS011;10759;51.982;9.232;2022-07-10T10:32:49;5.90;;;1.42;;
21202;SDS011;10759;51.982;9.232;2022-07-10T10:38:12;6.05;;;1.27;;
21202;SDS011;10759;51.982;9.232;2022-07-10T10:40:40;4.68;;;1.27;;
21202;SDS011;10759;51.982;9.232;2022-07-10T10:43:18;3.10;;;1.20;;
21202;SDS011;10759;51.982;9.232;2022-07-10T10:45:47;2.90;;;1.20;;
21202;SDS011;10759;51.982;9.232;2022-07-10T10:48:19;5.55;;;1.45;;
21202;SDS011;10759;51.982;9.232;2022-07-10T10:51:04;3.47;;;1.00;;
21202;SDS011;10759;51.982;9.232;2022-07-10T10:53:39;6.65;;;1.73;;
21202;SDS011;10759;51.982;9.232;2022-07-10T10:56:22;5.72;;;1.30;;
21202;SDS011;10759;51.982;9.232;2022-07-10T10:58:52;6.55;;;1.60;;
21202;SDS011;10759;51.982;9.232;2022-07-10T11:01:24;3.33;;;1.17;;
21202;SDS011;10759;51.982;9.232;2022-07-10T11:06:50;4.93;;;1.27;;
21202;SDS011;10759;51.982;9.232;2022-07-10T11:09:25;5.13;;;1.33;;
21202;SDS011;10759;51.982;9.232;2022-07-10T11:12:00;4.00;;;0.95;;
21202;SDS011;10759;51.982;9.232;2022-07-10T11:14:34;3.60;;;1.13;;
21202;SDS011;10759;51.982;9.232;2022-07-10T11:19:36;4.50;;;1.10;;
21202;SDS011;10759;51.982;9.232;2022-07-10T11:22:21;5.28;;;1.70;;
21202;SDS011;10759;51.982;9.232;2022-07-10T11:28:09;5.35;;;1.48;;
21202;SDS011;10759;51.982;9.232;2022-07-10T11:30:45;4.60;;;1.30;;
21202;SDS011;10759;51.982;9.232;2022-07-10T11:33:15;2.10;;;1.13;;
21202;SDS011;10759;51.982;9.232;2022-07-10T11:35:48;4.88;;;1.20;;
21202;SDS011;10759;51.982;9.232;2022-07-10T11:38:29;3.45;;;1.33;;
21202;SDS011;10759;51.982;9.232;2022-07-10T11:41:02;3.83;;;1.30;;
21202;SDS011;10759;51.982;9.232;2022-07-10T11:43:32;4.40;;;1.17;;
21202;SDS011;10759;51.982;9.232;2022-07-10T11:46:05;3.03;;;1.17;;
21202;SDS011;10759;51.982;9.232;2022-07-10T11:48:38;3.90;;;1.13;;
21202;SDS011;10759;51.982;9.232;2022-07-10T11:51:23;5.82;;;1.48;;
21202;SDS011;10759;51.982;9.232;2022-07-10T11:53:56;6.60;;;1.70;;
21202;SDS011;10759;51.982;9.232;2022-07-10T11:56:28;3.75;;;1.48;;
21202;SDS011;10759;51.982;9.232;2022-07-10T11:58:59;2.85;;;1.70;;
21202;SDS011;10759;51.982;9.232;2022-07-10T12:01:31;4.20;;;1.23;;
21202;SDS011;10759;51.982;9.232;2022-07-10T12:04:04;3.58;;;1.25;;
21202;SDS011;10759;51.982;9.232;2022-07-10T12:06:43;5.20;;;1.10;;
21202;SDS011;10759;51.982;9.232;2022-07-10T12:09:13;3.45;;;1.17;;
21202;SDS011;10759;51.982;9.232;2022-07-10T12:11:58;3.87;;;1.20;;
21202;SDS011;10759;51.982;9.232;2022-07-10T12:14:27;3.25;;;1.15;;
21202;SDS011;10759;51.982;9.232;2022-07-10T12:17:02;3.50;;;0.98;;
21202;SDS011;10759;51.982;9.232;2022-07-10T12:19:39;3.60;;;0.90;;
21202;SDS011;10759;51.982;9.232;2022-07-10T12:22:07;1.85;;;0.65;;
21202;SDS011;10759;51.982;9.232;2022-07-10T12:24:35;2.55;;;0.90;;
21202;SDS011;10759;51.982;9.232;2022-07-10T12:27:05;2.50;;;0.90;;
21202;SDS011;10759;51.982;9.232;2022-07-10T12:29:35;5.78;;;1.10;;
21202;SDS011;10759;51.982;9.232;2022-07-10T12:32:04;3.90;;;0.70;;
21202;SDS011;10759;51.982;9.232;2022-07-10T12:34:35;2.67;;;0.93;;
21202;SDS011;10759;51.982;9.232;2022-07-10T12:37:06;2.53;;;1.10;;
21202;SDS011;10759;51.982;9.232;2022-07-10T12:39:39;4.07;;;0.85;;
21202;SDS011;10759;51.982;9.232;2022-07-10T12:42:25;1.95;;;0.88;;
21202;SDS011;10759;51.982;9.232;2022-07-10T12:44:54;4.10;;;1.10;;
21202;SDS011;10759;51.982;9.232;2022-07-10T12:47:42;2.47;;;0.90;;
21202;SDS011;10759;51.982;9.232;2022-07-10T12:50:15;2.92;;;0.90;;
21202;SDS011;10759;51.982;9.232;2022-07-10T12:53:06;4.20;;;1.13;;
21202;SDS011;10759;51.982;9.232;2022-07-10T12:55:40;3.25;;;0.85;;
21202;SDS011;10759;51.982;9.232;2022-07-10T12:58:22;1.27;;;0.60;;
21202;SDS011;10759;51.982;9.232;2022-07-10T13:00:55;2.88;;;0.73;;
21202;SDS011;10759;51.982;9.232;2022-07-10T13:03:24;4.13;;;1.15;;
21202;SDS011;10759;51.982;9.232;2022-07-10T13:05:56;3.88;;;1.10;;
21202;SDS011;10759;51.982;9.232;2022-07-10T13:08:26;3.00;;;1.05;;
21202;SDS011;10759;51.982;9.232;2022-07-10T13:10:56;3.05;;;1.20;;
21202;SDS011;10759;51.982;9.232;2022-07-10T13:13:28;4.95;;;0.90;;
21202;SDS011;10759;51.982;9.232;2022-07-10T13:16:08;1.85;;;0.85;;
21202;SDS011;10759;51.982;9.232;2022-07-10T13:18:42;2.25;;;1.17;;
21202;SDS011;10759;51.982;9.232;2022-07-10T13:21:13;2.17;;;0.75;;
21202;SDS011;10759;51.982;9.232;2022-07-10T13:23:44;1.52;;;1.13;;
21202;SDS011;10759;51.982;9.232;2022-07-10T13:26:18;4.45;;;1.00;;
21202;SDS011;10759;51.982;9.232;2022-07-10T13:28:48;3.17;;;1.00;;
21202;SDS011;10759;51.982;9.232;2022-07-10T13:31:19;2.10;;;0.80;;
21202;SDS011;10759;51.982;9.232;2022-07-10T13:33:47;1.83;;;1.00;;
21202;SDS011;10759;51.982;9.232;2022-07-10T13:36:15;1.48;;;0.93;;
21202;SDS011;10759;51.982;9.232;2022-07-10T13:38:43;1.67;;;0.80;;
21202;SDS011;10759;51.982;9.232;2022-07-10T13:41:19;2.40;;;0.90;;
21202;SDS011;10759;51.982;9.232;2022-07-10T13:43:48;1.25;;;0.95;;
21202;SDS011;10759;51.982;9.232;2022-07-10T13:46:21;2.58;;;0.80;;
21202;SDS011;10759;51.982;9.232;2022-07-10T13:48:57;2.08;;;0.80;;
21202;SDS011;10759;51.982;9.232;2022-07-10T13:51:36;1.17;;;0.60;;
21202;SDS011;10759;51.982;9.232;2022-07-10T13:54:08;2.25;;;0.95;;
21202;SDS011;10759;51.982;9.232;2022-07-10T13:56:39;1.58;;;0.50;;
21202;SDS011;10759;51.982;9.232;2022-07-10T13:59:16;1.90;;;0.73;;
21202;SDS011;10759;51.982;9.232;2022-07-10T14:01:52;1.83;;;0.90;;
21202;SDS011;10759;51.982;9.232;2022-07-10T14:04:22;2.85;;;0.70;;
21202;SDS011;10759;51.982;9.232;2022-07-10T14:06:54;1.25;;;0.55;;
21202;SDS011;10759;51.982;9.232;2022-07-10T14:09:26;0.73;;;0.57;;
21202;SDS011;10759;51.982;9.232;2022-07-10T14:11:59;1.42;;;0.63;;
21202;SDS011;10759;51.982;9.232;2022-07-10T14:14:34;1.92;;;0.80;;
21202;SDS011;10759;51.982;9.232;2022-07-10T14:17:05;1.02;;;0.50;;
21202;SDS011;10759;51.982;9.232;2022-07-10T14:19:34;1.20;;;0.63;;
21202;SDS011;10759;51.982;9.232;2022-07-10T14:22:09;3.03;;;0.75;;
21202;SDS011;10759;51.982;9.232;2022-07-10T14:24:39;2.22;;;0.75;;
21202;SDS011;10759;51.982;9.232;2022-07-10T14:27:08;3.47;;;0.80;;
21202;SDS011;10759;51.982;9.232;2022-07-10T14:29:44;1.52;;;0.52;;
21202;SDS011;10759;51.982;9.232;2022-07-10T14:32:12;1.63;;;0.70;;
21202;SDS011;10759;51.982;9.232;2022-07-10T14:34:40;1.48;;;0.60;;
21202;SDS011;10759;51.982;9.232;2022-07-10T14:37:08;2.53;;;0.90;;
21202;SDS011;10759;51.982;9.232;2022-07-10T14:39:36;2.08;;;0.80;;
21202;SDS011;10759;51.982;9.232;2022-07-10T14:42:04;1.67;;;0.63;;
21202;SDS011;10759;51.982;9.232;2022-07-10T14:44:34;1.77;;;0.80;;
21202;SDS011;10759;51.982;9.232;2022-07-10T14:47:11;2.00;;;0.70;;
21202;SDS011;10759;51.982;9.232;2022-07-10T14:49:46;2.38;;;0.88;;
21202;SDS011;10759;51.982;9.232;2022-07-10T14:52:15;2.92;;;0.73;;
21202;SDS011;10759;51.982;9.232;2022-07-10T14:54:47;1.90;;;0.90;;
21202;SDS011;10759;51.982;9.232;2022-07-10T14:57:18;0.63;;;0.50;;
21202;SDS011;10759;51.982;9.232;2022-07-10T14:59:51;1.10;;;0.50;;
21202;SDS011;10759;51.982;9.232;2022-07-10T15:02:31;0.47;;;0.43;;
21202;SDS011;10759;51.982;9.232;2022-07-10T15:05:04;0.80;;;0.60;;
21202;SDS011;10759;51.982;9.232;2022-07-10T15:07:36;3.92;;;0.60;;
21202;SDS011;10759;51.982;9.232;2022-07-10T15:10:10;0.90;;;0.30;;
21202;SDS011;10759;51.982;9.232;2022-07-10T15:15:09;0.82;;;0.50;;
21202;SDS011;10759;51.982;9.232;2022-07-10T15:17:39;1.42;;;0.60;;
21202;SDS011;10759;51.982;9.232;2022-07-10T15:20:07;1.40;;;0.60;;
21202;SDS011;10759;51.982;9.232;2022-07-10T15:22:37;2.45;;;0.60;;
21202;SDS011;10759;51.982;9.232;2022-07-10T15:25:06;1.38;;;0.75;;
21202;SDS011;10759;51.982;9.232;2022-07-10T15:27:36;1.27;;;0.70;;
21202;SDS011;10759;51.982;9.232;2022-07-10T15:30:06;1.55;;;0.70;;
21202;SDS011;10759;51.982;9.232;2022-07-10T15:32:35;1.52;;;0.50;;
21202;SDS011;10759;51.982;9.232;2022-07-10T15:35:05;0.80;;;0.50;;
21202;SDS011;10759;51.982;9.232;2022-07-10T15:37:34;1.48;;;0.50;;
21202;SDS011;10759;51.982;9.232;2022-07-10T15:40:02;1.05;;;0.60;;
21202;SDS011;10759;51.982;9.232;2022-07-10T15:42:30;0.73;;;0.50;;
21202;SDS011;10759;51.982;9.232;2022-07-10T15:44:58;2.60;;;0.75;;
21202;SDS011;10759;51.982;9.232;2022-07-10T15:47:26;4.00;;;0.80;;
21202;SDS011;10759;51.982;9.232;2022-07-10T15:49:54;0.70;;;0.52;;